Time;durP1;ratioP1;P1;durP2;ratioP2;P2;SDS_P1;SDS_P2;PMS_P1;PMS_P2;Temp;Humidity;BMP_temperature;BMP_pressure;BME280_temperature;BME280_humidity;BME280_pressure;Samples;Min_cycle;Max_cycle;Signal;HPM_P1;HPM_P2
2021/09/22 00:00:15;;;;;;;5.07;3.25;;;;;;;;;;5042296;28;20530;-86
2021/09/22 00:02:41;;;;;;;11.52;3.38;;;;;;;;;;5032758;28;20021;-86
2021/09/22 00:05:07;;;;;;;8.38;3.63;;;;;;;;;;5040981;28;20013;-86
2021/09/22 00:07:32;;;;;;;5.95;3.50;;;;;;;;;;5031860;28;20063;-86
2021/09/22 00:09:58;;;;;;;6.53;3.22;;;;;;;;;;5036193;28;20101;-86
2021/09/22 00:12:23;;;;;;;9.45;3.60;;;;;;;;;;5042018;28;20032;-86
2021/09/22 00:14:48;;;;;;;7.22;3.70;;;;;;;;;;5043722;28;20163;-86
2021/09/22 00:17:13;;;;;;;5.93;3.38;;;;;;;;;;5037550;28;20147;-86
2021/09/22 00:19:39;;;;;;;5.80;3.20;;;;;;;;;;5042723;28;20422;-86
2021/09/22 00:22:04;;;;;;;8.95;3.67;;;;;;;;;;5036968;28;20109;-87
2021/09/22 00:24:29;;;;;;;6.68;3.00;;;;;;;;;;5042749;28;20025;-86
2021/09/22 00:26:54;;;;;;;8.73;3.63;;;;;;;;;;5035105;28;20077;-86
2021/09/22 00:29:20;;;;;;;22.25;7.30;;;;;;;;;;5043687;28;20025;-86
2021/09/22 00:31:45;;;;;;;33.55;10.63;;;;;;;;;;5043774;28;20370;-86
2021/09/22 00:34:11;;;;;;;36.58;11.50;;;;;;;;;;5039491;28;20380;-86
2021/09/22 00:36:36;;;;;;;59.60;16.55;;;;;;;;;;5044442;28;20031;-86
2021/09/22 00:39:02;;;;;;;59.38;17.25;;;;;;;;;;5037195;28;20025;-86
2021/09/22 00:41:27;;;;;;;46.47;13.85;;;;;;;;;;5044094;28;20075;-85
2021/09/22 00:43:52;;;;;;;42.58;13.65;;;;;;;;;;5035370;28;20076;-86
2021/09/22 00:46:18;;;;;;;39.55;12.50;;;;;;;;;;5043699;28;20468;-86
2021/09/22 00:48:43;;;;;;;58.65;15.57;;;;;;;;;;5035447;28;20032;-85
2021/09/22 00:51:09;;;;;;;56.25;17.92;;;;;;;;;;5042113;28;20039;-86
2021/09/22 00:53:35;;;;;;;52.92;16.95;;;;;;;;;;5044624;28;20020;-86
2021/09/22 00:56:03;;;;;;;51.95;15.05;;;;;;;;;;5038173;28;20031;-86
2021/09/22 00:58:28;;;;;;;56.78;15.88;;;;;;;;;;5037408;28;20029;-86
2021/09/22 01:00:53;;;;;;;49.38;13.57;;;;;;;;;;5035734;28;20018;-86
2021/09/22 01:03:19;;;;;;;49.00;13.93;;;;;;;;;;5044351;28;20071;-86
2021/09/22 01:05:44;;;;;;;45.75;13.98;;;;;;;;;;5036688;28;20080;-85
2021/09/22 01:08:10;;;;;;;46.15;13.85;;;;;;;;;;5041124;28;20031;-86
2021/09/22 01:10:36;;;;;;;50.22;14.07;;;;;;;;;;5041647;28;20052;-85
2021/09/22 01:13:01;;;;;;;51.78;13.45;;;;;;;;;;5034333;28;20032;-86
2021/09/22 01:15:28;;;;;;;39.67;11.15;;;;;;;;;;5037830;28;20073;-86
2021/09/22 01:17:53;;;;;;;30.48;10.50;;;;;;;;;;5040912;28;20158;-86
2021/09/22 01:20:19;;;;;;;28.23;9.57;;;;;;;;;;5035284;28;20044;-86
2021/09/22 01:22:44;;;;;;;34.97;11.23;;;;;;;;;;5041363;28;20464;-86
2021/09/22 01:25:10;;;;;;;28.08;9.43;;;;;;;;;;5033575;28;20026;-86
2021/09/22 01:27:44;;;;;;;19.75;7.80;;;;;;;;;;5040993;28;20074;-86
2021/09/22 01:30:09;;;;;;;20.25;7.35;;;;;;;;;;5033789;28;20062;-86
2021/09/22 01:32:35;;;;;;;20.20;7.43;;;;;;;;;;5034499;28;20579;-86
2021/09/22 01:35:00;;;;;;;14.75;5.88;;;;;;;;;;5033125;28;20019;-86
2021/09/22 01:37:25;;;;;;;16.27;5.78;;;;;;;;;;5033106;28;20029;-86
2021/09/22 01:39:50;;;;;;;9.48;4.95;;;;;;;;;;5032496;28;20025;-86
2021/09/22 01:42:15;;;;;;;11.57;5.38;;;;;;;;;;5034539;28;20053;-86
2021/09/22 01:44:41;;;;;;;10.48;5.18;;;;;;;;;;5033082;28;20532;-86
2021/09/22 01:47:06;;;;;;;13.45;5.75;;;;;;;;;;5034375;28;20017;-86
2021/09/22 01:49:31;;;;;;;21.60;6.60;;;;;;;;;;5033005;28;20095;-86
2021/09/22 01:51:58;;;;;;;12.38;5.25;;;;;;;;;;5032471;28;20026;-86
2021/09/22 01:54:23;;;;;;;16.55;5.13;;;;;;;;;;5032667;28;20029;-86
2021/09/22 01:56:49;;;;;;;15.15;5.13;;;;;;;;;;5034152;28;20040;-86
2021/09/22 01:59:15;;;;;;;10.55;4.80;;;;;;;;;;5034722;28;20053;-86
2021/09/22 02:01:40;;;;;;;11.45;5.30;;;;;;;;;;5034388;28;20044;-86
2021/09/22 02:04:05;;;;;;;12.68;4.95;;;;;;;;;;5032229;28;20052;-86
2021/09/22 02:06:30;;;;;;;11.15;4.57;;;;;;;;;;5032811;28;20374;-86
2021/09/22 02:08:56;;;;;;;11.70;4.57;;;;;;;;;;5032451;28;20063;-86
2021/09/22 02:11:21;;;;;;;13.23;4.78;;;;;;;;;;5033845;28;20040;-86
2021/09/22 02:13:46;;;;;;;10.48;5.10;;;;;;;;;;5033962;28;20672;-86
2021/09/22 02:16:11;;;;;;;9.98;4.47;;;;;;;;;;5032045;28;20515;-86
2021/09/22 02:18:36;;;;;;;10.40;4.55;;;;;;;;;;5032393;28;20475;-86
2021/09/22 02:21:08;;;;;;;9.65;5.07;;;;;;;;;;5032246;28;20472;-86
2021/09/22 02:23:33;;;;;;;11.75;4.90;;;;;;;;;;5032235;28;20022;-86
2021/09/22 02:25:59;;;;;;;9.23;4.47;;;;;;;;;;5032306;28;20486;-85
2021/09/22 02:28:24;;;;;;;11.02;4.82;;;;;;;;;;5040745;28;20028;-86
2021/09/22 02:30:49;;;;;;;14.43;5.07;;;;;;;;;;5033288;28;20400;-86
2021/09/22 02:33:14;;;;;;;11.10;5.03;;;;;;;;;;5032263;28;20279;-86
2021/09/22 02:35:40;;;;;;;10.82;5.40;;;;;;;;;;5032338;28;20021;-87
2021/09/22 02:38:05;;;;;;;11.13;5.00;;;;;;;;;;5031733;28;20029;-86
2021/09/22 02:40:30;;;;;;;16.20;4.90;;;;;;;;;;5032228;28;20028;-86
2021/09/22 02:42:55;;;;;;;11.45;4.30;;;;;;;;;;5032041;28;20071;-85
2021/09/22 02:45:21;;;;;;;12.05;4.97;;;;;;;;;;5032809;28;20025;-86
2021/09/22 02:47:46;;;;;;;14.45;4.57;;;;;;;;;;5040044;28;20416;-86
2021/09/22 02:50:13;;;;;;;7.93;4.53;;;;;;;;;;5032666;28;20048;-86
2021/09/22 02:52:39;;;;;;;12.07;4.75;;;;;;;;;;5031809;28;20025;-86
2021/09/22 02:55:04;;;;;;;14.90;4.82;;;;;;;;;;5031647;28;20017;-86
2021/09/22 02:57:29;;;;;;;8.48;4.35;;;;;;;;;;5060597;28;20033;-86
2021/09/22 02:59:55;;;;;;;9.55;5.25;;;;;;;;;;5032939;28;20100;-86
2021/09/22 03:02:20;;;;;;;7.78;4.45;;;;;;;;;;5032628;28;20021;-86
2021/09/22 03:04:45;;;;;;;9.05;4.68;;;;;;;;;;5032925;28;20485;-86
2021/09/22 03:07:11;;;;;;;9.10;4.43;;;;;;;;;;5047106;28;20071;-86
2021/09/22 03:09:36;;;;;;;9.90;4.80;;;;;;;;;;5031582;28;20018;-87
2021/09/22 03:12:01;;;;;;;6.93;4.10;;;;;;;;;;5039045;28;20464;-85
2021/09/22 03:14:26;;;;;;;10.23;4.43;;;;;;;;;;5031336;28;20156;-86
2021/09/22 03:16:51;;;;;;;8.70;4.38;;;;;;;;;;5039453;28;20014;-86
2021/09/22 03:19:17;;;;;;;10.43;4.88;;;;;;;;;;5031026;28;20089;-86
2021/09/22 03:21:45;;;;;;;12.57;5.25;;;;;;;;;;5031767;28;20029;-87
2021/09/22 03:24:10;;;;;;;9.77;4.78;;;;;;;;;;5035454;28;20017;-86
2021/09/22 03:26:35;;;;;;;11.10;4.45;;;;;;;;;;5032659;28;20028;-86
2021/09/22 03:29:01;;;;;;;6.93;3.85;;;;;;;;;;5032243;28;20044;-86
2021/09/22 03:31:26;;;;;;;10.80;5.13;;;;;;;;;;5030913;28;20108;-86
2021/09/22 03:33:51;;;;;;;11.38;4.38;;;;;;;;;;5032249;28;20049;-86
2021/09/22 03:36:16;;;;;;;9.27;4.60;;;;;;;;;;5030939;28;20049;-85
2021/09/22 03:38:42;;;;;;;10.27;5.47;;;;;;;;;;5031273;28;20017;-87
2021/09/22 03:41:07;;;;;;;9.27;4.50;;;;;;;;;;5032592;28;20009;-86
2021/09/22 03:43:32;;;;;;;10.00;4.75;;;;;;;;;;5044943;28;20053;-86
2021/09/22 03:45:58;;;;;;;12.15;4.85;;;;;;;;;;5038942;28;20028;-86
2021/09/22 03:48:23;;;;;;;8.15;4.72;;;;;;;;;;5030816;28;20069;-87
2021/09/22 03:50:49;;;;;;;10.35;4.93;;;;;;;;;;5031043;28;20029;-86
2021/09/22 03:53:17;;;;;;;10.02;4.70;;;;;;;;;;5030953;28;20450;-86
2021/09/22 03:55:46;;;;;;;8.10;4.68;;;;;;;;;;5030814;28;20029;-86
2021/09/22 03:58:12;;;;;;;8.18;4.20;;;;;;;;;;5032158;28;20511;-86
2021/09/22 04:00:37;;;;;;;14.52;5.05;;;;;;;;;;5030437;28;20017;-86
2021/09/22 04:03:02;;;;;;;12.20;5.15;;;;;;;;;;5031296;28;20025;-86
2021/09/22 04:05:27;;;;;;;8.60;4.47;;;;;;;;;;5034602;28;20029;-86
2021/09/22 04:07:53;;;;;;;10.00;4.95;;;;;;;;;;5031002;28;20078;-86
2021/09/22 04:10:18;;;;;;;8.32;4.30;;;;;;;;;;5030884;28;20033;-86
2021/09/22 04:12:43;;;;;;;11.32;4.10;;;;;;;;;;5036845;28;20048;-86
2021/09/22 04:15:09;;;;;;;7.10;4.03;;;;;;;;;;5030767;28;20167;-86
2021/09/22 04:17:34;;;;;;;7.50;4.30;;;;;;;;;;5034551;28;20021;-86
2021/09/22 04:19:59;;;;;;;12.18;4.93;;;;;;;;;;5030756;28;20018;-86
2021/09/22 04:22:25;;;;;;;9.30;4.45;;;;;;;;;;5032018;28;20029;-86
2021/09/22 04:24:50;;;;;;;9.43;5.20;;;;;;;;;;5030560;28;20041;-87
2021/09/22 04:27:15;;;;;;;18.05;4.55;;;;;;;;;;5030716;28;20497;-87
2021/09/22 04:29:42;;;;;;;13.50;4.55;;;;;;;;;;5029844;28;20100;-86
2021/09/22 04:32:07;;;;;;;7.50;4.00;;;;;;;;;;5032047;28;20075;-86
2021/09/22 04:34:33;;;;;;;11.10;4.15;;;;;;;;;;5040013;28;20407;-87
2021/09/22 04:36:58;;;;;;;11.35;4.70;;;;;;;;;;5030513;28;20021;-87
2021/09/22 04:39:23;;;;;;;11.98;4.90;;;;;;;;;;5031570;28;20030;-86
2021/09/22 04:41:48;;;;;;;10.10;4.55;;;;;;;;;;5030284;28;20024;-86
2021/09/22 04:44:13;;;;;;;11.18;4.97;;;;;;;;;;5032026;28;20059;-87
2021/09/22 04:46:39;;;;;;;11.70;4.30;;;;;;;;;;5030351;28;20052;-86
2021/09/22 04:49:05;;;;;;;9.95;5.00;;;;;;;;;;5030427;28;20056;-87
2021/09/22 04:51:30;;;;;;;10.00;4.70;;;;;;;;;;5031805;28;20108;-86
2021/09/22 04:53:55;;;;;;;10.23;4.35;;;;;;;;;;5030266;28;20030;-87
2021/09/22 04:56:20;;;;;;;10.68;4.53;;;;;;;;;;5031420;28;20029;-86
2021/09/22 04:58:46;;;;;;;13.73;4.50;;;;;;;;;;5035085;28;20396;-86
2021/09/22 05:01:12;;;;;;;7.45;4.00;;;;;;;;;;5033891;28;20018;-86
2021/09/22 05:03:37;;;;;;;15.07;4.57;;;;;;;;;;5033871;28;20028;-86
2021/09/22 05:06:02;;;;;;;6.35;3.90;;;;;;;;;;5034988;28;20021;-87
2021/09/22 05:08:28;;;;;;;6.72;3.83;;;;;;;;;;5039920;28;20021;-87
2021/09/22 05:10:56;;;;;;;11.45;4.68;;;;;;;;;;5033731;28;20017;-86
2021/09/22 05:13:21;;;;;;;7.65;4.35;;;;;;;;;;5033676;28;20124;-86
2021/09/22 05:15:47;;;;;;;7.82;4.60;;;;;;;;;;5034740;28;20049;-86
2021/09/22 05:18:12;;;;;;;7.10;4.05;;;;;;;;;;5035547;28;20021;-86
2021/09/22 05:20:38;;;;;;;8.02;4.18;;;;;;;;;;5033672;28;20022;-86
2021/09/22 05:23:03;;;;;;;8.52;4.30;;;;;;;;;;5034640;28;20021;-86
2021/09/22 05:25:28;;;;;;;7.80;4.55;;;;;;;;;;5035045;28;20381;-86
2021/09/22 05:27:53;;;;;;;9.40;4.15;;;;;;;;;;5033112;28;20108;-86
2021/09/22 05:30:18;;;;;;;7.28;4.05;;;;;;;;;;5033362;28;20026;-86
2021/09/22 05:32:44;;;;;;;7.55;4.43;;;;;;;;;;5047072;28;20025;-86
2021/09/22 05:35:09;;;;;;;7.35;4.20;;;;;;;;;;5033247;28;20032;-87
2021/09/22 05:37:35;;;;;;;11.05;4.85;;;;;;;;;;5033296;28;20144;-87
2021/09/22 05:40:00;;;;;;;9.55;4.72;;;;;;;;;;5032898;28;20469;-86
2021/09/22 05:42:26;;;;;;;10.88;4.85;;;;;;;;;;5033306;28;20492;-86
2021/09/22 05:44:51;;;;;;;8.23;4.30;;;;;;;;;;5044889;28;20036;-86
2021/09/22 05:47:16;;;;;;;8.50;4.22;;;;;;;;;;5032700;28;20634;-86
2021/09/22 05:49:41;;;;;;;8.48;4.30;;;;;;;;;;5033080;28;20036;-86
2021/09/22 05:52:07;;;;;;;11.35;4.35;;;;;;;;;;5032969;28;20018;-86
2021/09/22 05:54:32;;;;;;;10.55;4.90;;;;;;;;;;5034327;28;20021;-86
2021/09/22 05:56:57;;;;;;;9.07;4.45;;;;;;;;;;5034125;28;20017;-86
2021/09/22 05:59:22;;;;;;;6.60;4.15;;;;;;;;;;5033805;28;20049;-86
2021/09/22 06:01:48;;;;;;;7.90;4.72;;;;;;;;;;5034315;28;20017;-86
2021/09/22 06:04:13;;;;;;;7.70;4.50;;;;;;;;;;5033936;28;20034;-86
2021/09/22 06:06:38;;;;;;;9.45;4.57;;;;;;;;;;5032873;28;20063;-86
2021/09/22 06:09:03;;;;;;;10.55;4.50;;;;;;;;;;5032416;28;20036;-86
2021/09/22 06:11:28;;;;;;;11.48;4.20;;;;;;;;;;5033800;28;20465;-86
2021/09/22 06:13:54;;;;;;;8.32;4.47;;;;;;;;;;5032794;28;20637;-87
2021/09/22 06:16:24;;;;;;;6.85;4.20;;;;;;;;;;5032302;28;20017;-87
2021/09/22 06:18:50;;;;;;;7.93;3.80;;;;;;;;;;5045672;28;20029;-87
2021/09/22 06:21:15;;;;;;;9.57;4.40;;;;;;;;;;5031569;28;20033;-87
2021/09/22 06:23:41;;;;;;;10.40;4.53;;;;;;;;;;5032427;28;20144;-87
2021/09/22 06:26:06;;;;;;;9.88;4.63;;;;;;;;;;5033342;28;20048;-87
2021/09/22 06:28:33;;;;;;;8.35;4.65;;;;;;;;;;5031653;28;20043;-86
2021/09/22 06:30:58;;;;;;;10.82;4.60;;;;;;;;;;5033641;28;20025;-87
2021/09/22 06:33:23;;;;;;;11.23;4.32;;;;;;;;;;5038525;28;20052;-87
2021/09/22 06:35:48;;;;;;;10.10;4.57;;;;;;;;;;5030969;28;20025;-86
2021/09/22 06:38:14;;;;;;;11.18;4.53;;;;;;;;;;5032342;28;20480;-86
2021/09/22 06:40:39;;;;;;;11.50;4.60;;;;;;;;;;5031594;28;20029;-87
2021/09/22 06:43:05;;;;;;;8.13;4.60;;;;;;;;;;5032117;28;20104;-87
2021/09/22 06:45:30;;;;;;;9.00;5.35;;;;;;;;;;5032531;28;20029;-87
2021/09/22 06:47:55;;;;;;;15.63;5.32;;;;;;;;;;5031532;28;20026;-87
2021/09/22 06:50:21;;;;;;;12.23;5.00;;;;;;;;;;5032059;28;20025;-87
2021/09/22 06:52:46;;;;;;;12.38;4.95;;;;;;;;;;5033347;28;20369;-87
2021/09/22 06:55:11;;;;;;;15.27;6.07;;;;;;;;;;5032647;28;20457;-86
2021/09/22 06:57:37;;;;;;;13.90;5.97;;;;;;;;;;5032734;28;20037;-87
2021/09/22 07:00:05;;;;;;;14.52;5.65;;;;;;;;;;5035879;28;20032;-87
2021/09/22 07:02:31;;;;;;;12.35;6.28;;;;;;;;;;5026651;28;20044;-87
2021/09/22 07:04:56;;;;;;;13.82;6.93;;;;;;;;;;5027387;28;20025;-87
2021/09/22 07:07:21;;;;;;;17.90;7.20;;;;;;;;;;5028168;28;20029;-87
2021/09/22 07:09:46;;;;;;;14.20;6.95;;;;;;;;;;5024225;28;20504;-87
2021/09/22 07:12:12;;;;;;;15.60;7.03;;;;;;;;;;5026377;28;20060;-87
2021/09/22 07:14:37;;;;;;;18.05;7.38;;;;;;;;;;5032638;28;20024;-87
2021/09/22 07:17:02;;;;;;;17.55;7.65;;;;;;;;;;5032608;28;20024;-87
2021/09/22 07:19:27;;;;;;;22.95;7.63;;;;;;;;;;5034551;28;20018;-87
2021/09/22 07:21:53;;;;;;;16.08;7.95;;;;;;;;;;5030836;28;20496;-87
2021/09/22 07:24:18;;;;;;;17.58;8.00;;;;;;;;;;5029955;28;20531;-87
2021/09/22 07:26:43;;;;;;;19.13;8.30;;;;;;;;;;5035328;28;20539;-87
2021/09/22 07:29:08;;;;;;;19.17;8.75;;;;;;;;;;5031692;28;20053;-87
2021/09/22 07:31:34;;;;;;;15.50;8.55;;;;;;;;;;5030903;28;20079;-87
2021/09/22 07:34:00;;;;;;;19.08;9.02;;;;;;;;;;5029644;28;20474;-87
2021/09/22 07:36:25;;;;;;;20.35;9.25;;;;;;;;;;5030871;28;20068;-87
2021/09/22 07:38:50;;;;;;;17.67;9.50;;;;;;;;;;5031957;28;20101;-87
2021/09/22 07:41:16;;;;;;;18.65;8.93;;;;;;;;;;5032503;28;20032;-87
2021/09/22 07:43:41;;;;;;;18.33;8.65;;;;;;;;;;5024848;28;20026;-87
2021/09/22 07:46:07;;;;;;;18.30;8.93;;;;;;;;;;5031071;28;20025;-88
2021/09/22 07:48:34;;;;;;;24.52;8.55;;;;;;;;;;5070168;28;20036;-87
2021/09/22 07:50:59;;;;;;;19.98;9.75;;;;;;;;;;5035557;28;20040;-87
2021/09/22 07:53:24;;;;;;;23.08;9.63;;;;;;;;;;5030636;28;20025;-87
2021/09/22 07:55:49;;;;;;;21.95;10.27;;;;;;;;;;5030954;28;20025;-87
2021/09/22 07:58:18;;;;;;;18.42;10.00;;;;;;;;;;5042103;28;20022;-87
2021/09/22 08:00:43;;;;;;;21.05;11.05;;;;;;;;;;5025616;28;20535;-88
2021/09/22 08:03:08;;;;;;;26.95;10.43;;;;;;;;;;5031357;28;20029;-87
2021/09/22 08:05:38;;;;;;;22.13;10.23;;;;;;;;;;5032097;28;20473;-87
2021/09/22 08:08:04;;;;;;;20.52;10.75;;;;;;;;;;5031129;28;20466;-87
2021/09/22 08:10:29;;;;;;;27.60;10.70;;;;;;;;;;5031867;28;20022;-87
2021/09/22 08:12:56;;;;;;;29.70;10.57;;;;;;;;;;5032465;28;20638;-87
2021/09/22 08:15:21;;;;;;;21.92;10.55;;;;;;;;;;5037516;28;20052;-87
2021/09/22 08:17:46;;;;;;;21.17;10.30;;;;;;;;;;5032161;28;20026;-87
2021/09/22 08:20:14;;;;;;;20.63;10.95;;;;;;;;;;5037418;28;20475;-87
2021/09/22 08:22:40;;;;;;;25.52;11.18;;;;;;;;;;5030471;28;20385;-87
2021/09/22 08:25:05;;;;;;;25.15;10.88;;;;;;;;;;5030903;28;20036;-88
2021/09/22 08:27:30;;;;;;;23.20;10.70;;;;;;;;;;5030182;28;20041;-88
2021/09/22 08:29:56;;;;;;;23.88;11.23;;;;;;;;;;5031933;28;20024;-87
2021/09/22 08:32:21;;;;;;;29.50;10.82;;;;;;;;;;5034316;28;20060;-87
2021/09/22 08:34:46;;;;;;;20.67;11.07;;;;;;;;;;5043195;28;20033;-87
2021/09/22 08:37:11;;;;;;;23.70;11.18;;;;;;;;;;5035566;28;20599;-87
2021/09/22 08:39:37;;;;;;;29.33;11.93;;;;;;;;;;5033998;28;20025;-87
2021/09/22 08:42:03;;;;;;;24.35;10.93;;;;;;;;;;5035932;28;20026;-87
2021/09/22 08:44:28;;;;;;;24.13;11.40;;;;;;;;;;5034206;28;20030;-87
2021/09/22 08:46:54;;;;;;;25.55;11.45;;;;;;;;;;5034499;28;20035;-87
2021/09/22 08:49:19;;;;;;;25.50;11.77;;;;;;;;;;5033985;28;20487;-88
2021/09/22 08:51:45;;;;;;;21.17;10.88;;;;;;;;;;5035325;28;20033;-88
2021/09/22 08:54:10;;;;;;;21.73;11.00;;;;;;;;;;5034425;28;20025;-88
2021/09/22 08:56:37;;;;;;;24.40;12.18;;;;;;;;;;5034935;28;20033;-87
2021/09/22 08:59:02;;;;;;;24.00;12.45;;;;;;;;;;5034358;28;20027;-88
2021/09/22 09:01:28;;;;;;;28.67;11.90;;;;;;;;;;5033873;28;20027;-87
2021/09/22 09:03:53;;;;;;;26.92;12.65;;;;;;;;;;5040615;28;20026;-88
2021/09/22 09:06:20;;;;;;;21.20;10.50;;;;;;;;;;5034227;28;20025;-87
2021/09/22 09:08:46;;;;;;;21.88;10.93;;;;;;;;;;5034786;28;20029;-88
2021/09/22 09:11:11;;;;;;;27.52;11.45;;;;;;;;;;5034120;28;20483;-88
2021/09/22 09:13:46;;;;;;;26.27;12.25;;;;;;;;;;5033630;28;20040;-88
2021/09/22 09:16:18;;;;;;;24.58;10.40;;;;;;;;;;5033592;28;20029;-88
2021/09/22 09:18:54;;;;;;;20.50;10.70;;;;;;;;;;5034606;28;20029;-88
2021/09/22 09:21:20;;;;;;;26.92;12.05;;;;;;;;;;5035017;28;20087;-88
2021/09/22 09:23:50;;;;;;;25.92;12.52;;;;;;;;;;5034811;28;20470;-87
2021/09/22 09:26:16;;;;;;;30.17;12.48;;;;;;;;;;5055244;28;20025;-88
2021/09/22 09:28:41;;;;;;;27.80;12.82;;;;;;;;;;5030867;28;20366;-87
2021/09/22 09:31:07;;;;;;;28.63;13.30;;;;;;;;;;5033487;28;20028;-88
2021/09/22 09:33:34;;;;;;;29.33;12.82;;;;;;;;;;5037902;28;20449;-88
2021/09/22 09:36:12;;;;;;;24.35;12.20;;;;;;;;;;5033333;28;20048;-88
2021/09/22 09:38:37;;;;;;;18.33;8.90;;;;;;;;;;5033224;28;20013;-88
2021/09/22 09:41:02;;;;;;;25.33;12.30;;;;;;;;;;5034788;28;20534;-87
2021/09/22 09:43:27;;;;;;;21.75;11.07;;;;;;;;;;5033216;28;20017;-88
2021/09/22 09:45:53;;;;;;;24.98;11.98;;;;;;;;;;5033026;28;20035;-87
2021/09/22 09:48:22;;;;;;;29.77;12.25;;;;;;;;;;5034413;28;20028;-87
2021/09/22 09:50:57;;;;;;;23.60;10.07;;;;;;;;;;5032741;28;20037;-87
2021/09/22 09:53:24;;;;;;;21.02;10.85;;;;;;;;;;5033021;28;20041;-88
2021/09/22 09:55:49;;;;;;;22.35;10.88;;;;;;;;;;5033216;28;20032;-87
2021/09/22 09:58:14;;;;;;;23.77;11.07;;;;;;;;;;5032709;28;20110;-87
2021/09/22 10:00:40;;;;;;;28.10;11.55;;;;;;;;;;5036983;28;20384;-87
2021/09/22 10:03:12;;;;;;;21.48;11.52;;;;;;;;;;5032863;28;20021;-87
2021/09/22 10:05:37;;;;;;;22.77;10.63;;;;;;;;;;5033022;28;20018;-87
2021/09/22 10:08:03;;;;;;;17.45;7.38;;;;;;;;;;5032996;28;20561;-88
2021/09/22 10:10:28;;;;;;;25.80;8.95;;;;;;;;;;5038122;28;20017;-88
2021/09/22 10:12:54;;;;;;;26.55;12.00;;;;;;;;;;5033903;28;20017;-87
2021/09/22 10:15:19;;;;;;;22.33;11.68;;;;;;;;;;5031677;28;20527;-88
2021/09/22 10:17:45;;;;;;;28.10;10.25;;;;;;;;;;5056158;28;20018;-87
2021/09/22 10:20:11;;;;;;;21.23;9.95;;;;;;;;;;5032009;28;20017;-87
2021/09/22 10:22:36;;;;;;;21.00;10.23;;;;;;;;;;5035115;28;20492;-87
2021/09/22 10:25:02;;;;;;;22.35;11.15;;;;;;;;;;5033002;28;20017;-87
2021/09/22 10:27:27;;;;;;;21.80;10.60;;;;;;;;;;5059902;28;20037;-87
2021/09/22 10:29:58;;;;;;;22.80;10.60;;;;;;;;;;5031905;28;20017;-87
2021/09/22 10:32:32;;;;;;;24.25;9.85;;;;;;;;;;5056097;28;20052;-85
2021/09/22 10:34:57;;;;;;;20.13;8.73;;;;;;;;;;5033395;28;20018;-85
2021/09/22 10:37:30;;;;;;;21.92;9.05;;;;;;;;;;5033065;28;20487;-85
2021/09/22 10:39:55;;;;;;;22.40;8.82;;;;;;;;;;5022954;28;20381;-86
2021/09/22 10:42:31;;;;;;;18.95;7.82;;;;;;;;;;5031979;28;20024;-85
2021/09/22 10:45:16;;;;;;;16.52;7.25;;;;;;;;;;5032061;28;20048;-86
2021/09/22 10:47:42;;;;;;;15.57;6.45;;;;;;;;;;5030023;28;20116;-85
2021/09/22 10:50:08;;;;;;;13.75;5.78;;;;;;;;;;5028080;28;20108;-85
2021/09/22 10:52:36;;;;;;;20.15;7.07;;;;;;;;;;5033679;28;20013;-85
2021/09/22 10:55:15;;;;;;;13.52;6.43;;;;;;;;;;5031630;28;20029;-84
2021/09/22 10:57:42;;;;;;;13.98;7.25;;;;;;;;;;5028154;28;20009;-84
2021/09/22 11:00:12;;;;;;;14.43;6.38;;;;;;;;;;5057765;28;20021;-85
2021/09/22 11:02:48;;;;;;;15.48;6.07;;;;;;;;;;5030377;28;20124;-85
2021/09/22 11:05:14;;;;;;;17.25;7.95;;;;;;;;;;5052566;28;20112;-85
2021/09/22 11:07:52;;;;;;;14.48;5.95;;;;;;;;;;5031691;28;20029;-85
2021/09/22 11:10:33;;;;;;;18.00;8.07;;;;;;;;;;5032014;28;20017;-85
2021/09/22 11:13:17;;;;;;;18.98;8.05;;;;;;;;;;5032155;28;20033;-85
2021/09/22 11:15:42;;;;;;;18.13;7.88;;;;;;;;;;5032286;28;20028;-85
2021/09/22 11:18:08;;;;;;;13.88;5.93;;;;;;;;;;5031595;28;20018;-85
2021/09/22 11:20:33;;;;;;;12.73;5.30;;;;;;;;;;5032528;28;20056;-85
2021/09/22 11:23:05;;;;;;;9.73;4.80;;;;;;;;;;5032905;28;20373;-85
2021/09/22 11:25:31;;;;;;;13.43;5.85;;;;;;;;;;5032408;28;20152;-85
2021/09/22 11:28:07;;;;;;;16.27;6.75;;;;;;;;;;5031586;28;20022;-85
2021/09/22 11:30:33;;;;;;;14.93;6.80;;;;;;;;;;5030340;28;20029;-85
2021/09/22 11:32:58;;;;;;;13.82;7.22;;;;;;;;;;5032193;28;20014;-85
2021/09/22 11:35:28;;;;;;;14.95;7.60;;;;;;;;;;5030842;28;20025;-85
2021/09/22 11:37:56;;;;;;;17.98;6.65;;;;;;;;;;5031018;28;20026;-85
2021/09/22 11:40:24;;;;;;;15.82;7.50;;;;;;;;;;5032275;28;20021;-85
2021/09/22 11:42:55;;;;;;;13.82;7.05;;;;;;;;;;5031928;28;20017;-85
2021/09/22 11:45:25;;;;;;;14.67;6.47;;;;;;;;;;5032184;28;20036;-84
2021/09/22 11:47:51;;;;;;;12.75;5.28;;;;;;;;;;5031199;28;20029;-85
2021/09/22 11:50:23;;;;;;;15.70;7.10;;;;;;;;;;5032177;28;20044;-85
2021/09/22 11:52:48;;;;;;;14.45;6.90;;;;;;;;;;5032734;28;20021;-85
2021/09/22 11:55:17;;;;;;;17.08;7.15;;;;;;;;;;5029869;28;20519;-85
2021/09/22 11:57:42;;;;;;;16.50;7.25;;;;;;;;;;5030555;28;20035;-85
2021/09/22 12:00:13;;;;;;;18.40;8.45;;;;;;;;;;5038358;28;20125;-85
2021/09/22 12:02:39;;;;;;;11.52;5.00;;;;;;;;;;5029522;28;20013;-85
2021/09/22 12:05:05;;;;;;;14.48;6.43;;;;;;;;;;5030408;28;20091;-85
2021/09/22 12:07:30;;;;;;;13.80;6.45;;;;;;;;;;5036312;28;20025;-85
2021/09/22 12:09:58;;;;;;;13.52;5.80;;;;;;;;;;5033009;28;20049;-85
2021/09/22 12:12:24;;;;;;;10.65;4.90;;;;;;;;;;5038265;28;20476;-86
2021/09/22 12:14:50;;;;;;;9.82;4.80;;;;;;;;;;5039719;28;20028;-85
2021/09/22 12:17:17;;;;;;;9.30;5.57;;;;;;;;;;5034996;28;20029;-85
2021/09/22 12:19:42;;;;;;;9.57;4.13;;;;;;;;;;5032739;28;20032;-85
2021/09/22 12:22:08;;;;;;;10.05;3.63;;;;;;;;;;5035738;28;20017;-85
2021/09/22 12:24:34;;;;;;;10.55;4.63;;;;;;;;;;5033642;28;20163;-85
2021/09/22 12:27:00;;;;;;;7.32;4.32;;;;;;;;;;5035900;28;20045;-86
2021/09/22 12:29:25;;;;;;;10.45;4.97;;;;;;;;;;5033848;28;20026;-86
2021/09/22 12:31:53;;;;;;;14.02;7.20;;;;;;;;;;5035914;28;20025;-85
2021/09/22 12:34:25;;;;;;;12.32;5.57;;;;;;;;;;5034733;28;20104;-85
2021/09/22 12:36:52;;;;;;;13.00;6.47;;;;;;;;;;5065373;28;20358;-85
2021/09/22 12:39:19;;;;;;;13.18;5.57;;;;;;;;;;5035401;28;20017;-86
2021/09/22 12:41:58;;;;;;;10.65;4.85;;;;;;;;;;5033160;28;20018;-85
2021/09/22 12:44:23;;;;;;;13.10;5.25;;;;;;;;;;5033205;28;20394;-85
2021/09/22 12:46:49;;;;;;;8.43;3.25;;;;;;;;;;5033243;28;20021;-85
2021/09/22 12:49:19;;;;;;;9.75;4.72;;;;;;;;;;5033651;28;20025;-86
2021/09/22 12:51:48;;;;;;;13.77;5.65;;;;;;;;;;5034413;28;20020;-85
2021/09/22 12:54:15;;;;;;;8.93;3.88;;;;;;;;;;5028455;28;20025;-85
2021/09/22 12:56:41;;;;;;;15.23;5.32;;;;;;;;;;5033820;28;20021;-85
2021/09/22 12:59:16;;;;;;;13.80;5.05;;;;;;;;;;5033529;28;20021;-88
2021/09/22 13:01:42;;;;;;;12.13;4.63;;;;;;;;;;5033524;28;20017;-87
2021/09/22 13:04:07;;;;;;;14.85;6.80;;;;;;;;;;5033426;28;20067;-87
2021/09/22 13:06:32;;;;;;;11.55;5.70;;;;;;;;;;5040277;28;20385;-88
2021/09/22 13:08:58;;;;;;;8.50;4.28;;;;;;;;;;5034744;28;20033;-87
2021/09/22 13:11:33;;;;;;;15.55;6.28;;;;;;;;;;5033988;28;20470;-88
2021/09/22 13:14:06;;;;;;;10.20;5.20;;;;;;;;;;5034707;28;20025;-88
2021/09/22 13:16:34;;;;;;;11.38;5.82;;;;;;;;;;5034974;28;20050;-88
2021/09/22 13:19:01;;;;;;;13.65;5.57;;;;;;;;;;5034282;28;20531;-87
2021/09/22 13:21:26;;;;;;;11.45;4.82;;;;;;;;;;5033968;28;20040;-87
2021/09/22 13:23:53;;;;;;;10.02;4.80;;;;;;;;;;5033281;28;20116;-87
2021/09/22 13:26:19;;;;;;;8.60;4.15;;;;;;;;;;5034995;28;20026;-90
2021/09/22 13:28:45;;;;;;;11.65;5.13;;;;;;;;;;5033759;28;20082;-89
2021/09/22 13:31:10;;;;;;;15.30;6.05;;;;;;;;;;5034359;28;20114;-88
2021/09/22 13:33:36;;;;;;;13.80;5.40;;;;;;;;;;5033422;28;20040;-88
2021/09/22 13:36:02;;;;;;;10.98;5.05;;;;;;;;;;5033370;28;20029;-88
2021/09/22 13:38:27;;;;;;;13.43;6.32;;;;;;;;;;5032995;28;20014;-87
2021/09/22 13:40:53;;;;;;;12.77;5.53;;;;;;;;;;5034703;28;20469;-87
2021/09/22 13:43:23;;;;;;;9.70;4.15;;;;;;;;;;5033043;28;20623;-88
2021/09/22 13:45:48;;;;;;;11.82;4.80;;;;;;;;;;5034534;28;20013;-88
2021/09/22 13:48:14;;;;;;;14.10;5.47;;;;;;;;;;5034282;28;20052;-87
2021/09/22 13:50:39;;;;;;;14.35;4.85;;;;;;;;;;5033249;28;20096;-88
2021/09/22 13:53:04;;;;;;;11.30;4.65;;;;;;;;;;5039654;28;20380;-87
2021/09/22 13:55:29;;;;;;;9.00;4.15;;;;;;;;;;5034217;28;20020;-88
2021/09/22 13:57:54;;;;;;;7.93;4.10;;;;;;;;;;5033411;28;20019;-88
2021/09/22 14:00:20;;;;;;;9.70;4.35;;;;;;;;;;5060550;28;20108;-88
2021/09/22 14:02:45;;;;;;;18.60;5.38;;;;;;;;;;5038111;28;20551;-88
2021/09/22 14:05:10;;;;;;;11.02;4.70;;;;;;;;;;5032853;28;20032;-88
2021/09/22 14:07:35;;;;;;;21.92;6.35;;;;;;;;;;5034146;28;20025;-88
2021/09/22 14:10:01;;;;;;;14.40;6.18;;;;;;;;;;5032434;28;20036;-87
2021/09/22 14:12:26;;;;;;;12.93;4.90;;;;;;;;;;5033942;28;20052;-87
2021/09/22 14:14:54;;;;;;;10.32;4.55;;;;;;;;;;5033735;28;20465;-87
2021/09/22 14:17:19;;;;;;;12.95;5.47;;;;;;;;;;5032627;28;20136;-88
2021/09/22 14:19:44;;;;;;;12.98;5.10;;;;;;;;;;5040547;28;20108;-87
2021/09/22 14:22:09;;;;;;;14.55;5.80;;;;;;;;;;5032376;28;20116;-87
2021/09/22 14:24:35;;;;;;;11.20;5.28;;;;;;;;;;5032911;28;20021;-87